sensor_id;sensor_type;location;lat;lon;timestamp;P1;durP1;ratioP1;P2;durP2;ratioP2
57025;SDS011;43961;52.940;6.834;2022-11-15T00:00:55;68.85;;;42.45;;
57025;SDS011;43961;52.940;6.834;2022-11-15T00:03:22;69.97;;;41.88;;
57025;SDS011;43961;52.940;6.834;2022-11-15T00:05:49;43.53;;;16.77;;
57025;SDS011;43961;52.940;6.834;2022-11-15T00:08:15;32.33;;;14.80;;
57025;SDS011;43961;52.940;6.834;2022-11-15T00:10:41;68.90;;;45.15;;
57025;SDS011;43961;52.940;6.834;2022-11-15T00:13:08;66.10;;;43.47;;
57025;SDS011;43961;52.940;6.834;2022-11-15T00:15:37;65.57;;;41.60;;
57025;SDS011;43961;52.940;6.834;2022-11-15T00:18:04;40.85;;;20.00;;
57025;SDS011;43961;52.940;6.834;2022-11-15T00:20:31;56.83;;;38.80;;
57025;SDS011;43961;52.940;6.834;2022-11-15T00:22:58;26.27;;;13.32;;
57025;SDS011;43961;52.940;6.834;2022-11-15T00:25:24;32.33;;;14.95;;
57025;SDS011;43961;52.940;6.834;2022-11-15T00:27:50;34.25;;;13.68;;
57025;SDS011;43961;52.940;6.834;2022-11-15T00:30:20;29.27;;;14.43;;
57025;SDS011;43961;52.940;6.834;2022-11-15T00:32:45;59.85;;;36.15;;
57025;SDS011;43961;52.940;6.834;2022-11-15T00:35:11;65.45;;;39.20;;
57025;SDS011;43961;52.940;6.834;2022-11-15T00:37:36;31.50;;;13.15;;
57025;SDS011;43961;52.940;6.834;2022-11-15T00:40:02;27.85;;;11.75;;
57025;SDS011;43961;52.940;6.834;2022-11-15T00:42:28;58.50;;;39.58;;
57025;SDS011;43961;52.940;6.834;2022-11-15T00:44:54;25.63;;;12.68;;
57025;SDS011;43961;52.940;6.834;2022-11-15T00:47:19;60.13;;;38.33;;
57025;SDS011;43961;52.940;6.834;2022-11-15T00:49:45;28.63;;;12.55;;
57025;SDS011;43961;52.940;6.834;2022-11-15T00:52:11;65.10;;;41.42;;
57025;SDS011;43961;52.940;6.834;2022-11-15T00:54:36;62.53;;;40.35;;
57025;SDS011;43961;52.940;6.834;2022-11-15T00:57:03;36.22;;;14.68;;
57025;SDS011;43961;52.940;6.834;2022-11-15T00:59:29;63.38;;;37.85;;
57025;SDS011;43961;52.940;6.834;2022-11-15T01:01:54;63.83;;;39.30;;
57025;SDS011;43961;52.940;6.834;2022-11-15T01:04:21;64.38;;;39.25;;
57025;SDS011;43961;52.940;6.834;2022-11-15T01:06:47;59.28;;;36.45;;
57025;SDS011;43961;52.940;6.834;2022-11-15T01:09:12;63.13;;;38.90;;
57025;SDS011;43961;52.940;6.834;2022-11-15T01:11:39;28.80;;;14.88;;
57025;SDS011;43961;52.940;6.834;2022-11-15T01:14:04;30.70;;;12.68;;
57025;SDS011;43961;52.940;6.834;2022-11-15T01:16:30;50.05;;;14.68;;
57025;SDS011;43961;52.940;6.834;2022-11-15T01:18:57;62.30;;;37.10;;
57025;SDS011;43961;52.940;6.834;2022-11-15T01:21:23;65.47;;;35.72;;
57025;SDS011;43961;52.940;6.834;2022-11-15T01:23:52;65.25;;;35.47;;
57025;SDS011;43961;52.940;6.834;2022-11-15T01:26:22;55.55;;;34.05;;
57025;SDS011;43961;52.940;6.834;2022-11-15T01:28:49;43.25;;;15.73;;
57025;SDS011;43961;52.940;6.834;2022-11-15T01:31:16;59.58;;;35.47;;
57025;SDS011;43961;52.940;6.834;2022-11-15T01:33:44;61.30;;;37.28;;
57025;SDS011;43961;52.940;6.834;2022-11-15T01:36:11;67.30;;;37.42;;
57025;SDS011;43961;52.940;6.834;2022-11-15T01:38:39;65.90;;;38.55;;
57025;SDS011;43961;52.940;6.834;2022-11-15T01:41:04;72.18;;;38.88;;
57025;SDS011;43961;52.940;6.834;2022-11-15T01:43:34;61.75;;;37.17;;
57025;SDS011;43961;52.940;6.834;2022-11-15T01:49:04;34.83;;;14.00;;
57025;SDS011;43961;52.940;6.834;2022-11-15T01:51:37;57.42;;;36.88;;
57025;SDS011;43961;52.940;6.834;2022-11-15T01:54:07;62.20;;;35.92;;
57025;SDS011;43961;52.940;6.834;2022-11-15T01:56:39;35.00;;;20.35;;
57025;SDS011;43961;52.940;6.834;2022-11-15T01:59:17;65.93;;;38.38;;
57025;SDS011;43961;52.940;6.834;2022-11-15T02:01:46;60.97;;;36.90;;
57025;SDS011;43961;52.940;6.834;2022-11-15T02:06:46;58.72;;;36.05;;
57025;SDS011;43961;52.940;6.834;2022-11-15T02:09:13;56.92;;;33.42;;
57025;SDS011;43961;52.940;6.834;2022-11-15T02:11:40;62.47;;;37.35;;
57025;SDS011;43961;52.940;6.834;2022-11-15T02:14:06;62.85;;;37.80;;
57025;SDS011;43961;52.940;6.834;2022-11-15T02:24:48;66.28;;;38.13;;
57025;SDS011;43961;52.940;6.834;2022-11-15T02:27:27;35.75;;;15.73;;
57025;SDS011;43961;52.940;6.834;2022-11-15T02:33:20;63.53;;;35.90;;
57025;SDS011;43961;52.940;6.834;2022-11-15T02:36:13;65.40;;;35.53;;
57025;SDS011;43961;52.940;6.834;2022-11-15T02:39:08;71.18;;;37.78;;
57025;SDS011;43961;52.940;6.834;2022-11-15T02:44:55;66.25;;;35.70;;
57025;SDS011;43961;52.940;6.834;2022-11-15T02:47:23;35.67;;;16.17;;
57025;SDS011;43961;52.940;6.834;2022-11-15T02:49:53;78.20;;;40.47;;
57025;SDS011;43961;52.940;6.834;2022-11-15T02:52:23;80.25;;;39.40;;
57025;SDS011;43961;52.940;6.834;2022-11-15T02:54:58;81.65;;;38.72;;
57025;SDS011;43961;52.940;6.834;2022-11-15T02:57:36;78.15;;;43.03;;
57025;SDS011;43961;52.940;6.834;2022-11-15T03:00:34;79.50;;;43.15;;
57025;SDS011;43961;52.940;6.834;2022-11-15T03:03:21;73.78;;;40.20;;
57025;SDS011;43961;52.940;6.834;2022-11-15T03:09:14;82.00;;;42.80;;
57025;SDS011;43961;52.940;6.834;2022-11-15T03:11:46;87.57;;;40.78;;
57025;SDS011;43961;52.940;6.834;2022-11-15T03:14:21;84.00;;;41.97;;
57025;SDS011;43961;52.940;6.834;2022-11-15T03:19:47;33.47;;;17.38;;
57025;SDS011;43961;52.940;6.834;2022-11-15T03:22:18;80.30;;;42.40;;
57025;SDS011;43961;52.940;6.834;2022-11-15T03:24:47;94.70;;;45.95;;
57025;SDS011;43961;52.940;6.834;2022-11-15T03:27:20;72.60;;;41.50;;
57025;SDS011;43961;52.940;6.834;2022-11-15T03:29:53;88.88;;;40.80;;
57025;SDS011;43961;52.940;6.834;2022-11-15T03:32:25;98.43;;;45.17;;
57025;SDS011;43961;52.940;6.834;2022-11-15T03:34:55;84.95;;;44.20;;
57025;SDS011;43961;52.940;6.834;2022-11-15T03:40:05;98.63;;;43.78;;
57025;SDS011;43961;52.940;6.834;2022-11-15T03:45:46;75.40;;;43.28;;
57025;SDS011;43961;52.940;6.834;2022-11-15T03:48:20;104.13;;;49.97;;
57025;SDS011;43961;52.940;6.834;2022-11-15T03:50:49;90.03;;;46.75;;
57025;SDS011;43961;52.940;6.834;2022-11-15T03:53:15;101.80;;;48.42;;
57025;SDS011;43961;52.940;6.834;2022-11-15T03:55:42;100.65;;;50.22;;
57025;SDS011;43961;52.940;6.834;2022-11-15T03:58:08;105.18;;;47.28;;
57025;SDS011;43961;52.940;6.834;2022-11-15T04:00:34;96.72;;;49.95;;
57025;SDS011;43961;52.940;6.834;2022-11-15T04:03:00;44.38;;;19.38;;
57025;SDS011;43961;52.940;6.834;2022-11-15T04:05:25;95.07;;;48.25;;
57025;SDS011;43961;52.940;6.834;2022-11-15T04:07:51;95.22;;;47.88;;
57025;SDS011;43961;52.940;6.834;2022-11-15T04:10:17;84.47;;;45.13;;
57025;SDS011;43961;52.940;6.834;2022-11-15T04:12:43;46.60;;;20.23;;
57025;SDS011;43961;52.940;6.834;2022-11-15T04:15:16;40.92;;;16.95;;
57025;SDS011;43961;52.940;6.834;2022-11-15T04:20:24;99.40;;;49.50;;
57025;SDS011;43961;52.940;6.834;2022-11-15T04:26:12;105.75;;;49.00;;
57025;SDS011;43961;52.940;6.834;2022-11-15T04:28:41;106.40;;;50.03;;
57025;SDS011;43961;52.940;6.834;2022-11-15T04:31:25;88.22;;;48.38;;
57025;SDS011;43961;52.940;6.834;2022-11-15T04:33:52;93.00;;;48.03;;
57025;SDS011;43961;52.940;6.834;2022-11-15T04:36:18;99.40;;;49.75;;
57025;SDS011;43961;52.940;6.834;2022-11-15T04:39:02;99.18;;;49.33;;
57025;SDS011;43961;52.940;6.834;2022-11-15T04:41:28;94.75;;;48.53;;
57025;SDS011;43961;52.940;6.834;2022-11-15T04:43:54;105.45;;;53.03;;
57025;SDS011;43961;52.940;6.834;2022-11-15T04:46:20;97.40;;;52.30;;
57025;SDS011;43961;52.940;6.834;2022-11-15T04:48:46;49.05;;;20.80;;
57025;SDS011;43961;52.940;6.834;2022-11-15T04:51:11;41.80;;;18.80;;
57025;SDS011;43961;52.940;6.834;2022-11-15T04:53:37;61.33;;;21.17;;
57025;SDS011;43961;52.940;6.834;2022-11-15T04:56:03;106.45;;;54.53;;
57025;SDS011;43961;52.940;6.834;2022-11-15T04:58:29;101.18;;;51.90;;
57025;SDS011;43961;52.940;6.834;2022-11-15T05:00:54;108.82;;;54.25;;
57025;SDS011;43961;52.940;6.834;2022-11-15T05:03:20;122.97;;;58.42;;
57025;SDS011;43961;52.940;6.834;2022-11-15T05:06:05;128.00;;;60.17;;
57025;SDS011;43961;52.940;6.834;2022-11-15T05:08:32;147.82;;;65.63;;
57025;SDS011;43961;52.940;6.834;2022-11-15T05:10:58;130.20;;;66.05;;
57025;SDS011;43961;52.940;6.834;2022-11-15T05:13:23;58.30;;;25.77;;
57025;SDS011;43961;52.940;6.834;2022-11-15T05:15:49;135.63;;;64.60;;
57025;SDS011;43961;52.940;6.834;2022-11-15T05:18:15;129.27;;;65.68;;
57025;SDS011;43961;52.940;6.834;2022-11-15T05:20:40;146.40;;;70.20;;
57025;SDS011;43961;52.940;6.834;2022-11-15T05:23:06;54.83;;;21.50;;
57025;SDS011;43961;52.940;6.834;2022-11-15T05:25:31;141.50;;;69.18;;
57025;SDS011;43961;52.940;6.834;2022-11-15T05:27:57;137.15;;;62.40;;
57025;SDS011;43961;52.940;6.834;2022-11-15T05:30:23;143.73;;;64.57;;
57025;SDS011;43961;52.940;6.834;2022-11-15T05:32:52;151.77;;;67.35;;
57025;SDS011;43961;52.940;6.834;2022-11-15T05:35:20;64.57;;;23.90;;
57025;SDS011;43961;52.940;6.834;2022-11-15T05:37:53;137.30;;;67.75;;
57025;SDS011;43961;52.940;6.834;2022-11-15T05:40:18;149.68;;;68.63;;
57025;SDS011;43961;52.940;6.834;2022-11-15T05:42:44;142.10;;;69.13;;
57025;SDS011;43961;52.940;6.834;2022-11-15T05:45:11;152.60;;;71.15;;
57025;SDS011;43961;52.940;6.834;2022-11-15T05:47:37;141.15;;;70.53;;
57025;SDS011;43961;52.940;6.834;2022-11-15T05:50:04;156.93;;;73.80;;
57025;SDS011;43961;52.940;6.834;2022-11-15T05:52:31;134.32;;;66.78;;
57025;SDS011;43961;52.940;6.834;2022-11-15T05:55:01;128.18;;;64.68;;
57025;SDS011;43961;52.940;6.834;2022-11-15T05:57:29;136.85;;;72.82;;
57025;SDS011;43961;52.940;6.834;2022-11-15T05:59:54;183.00;;;68.13;;
57025;SDS011;43961;52.940;6.834;2022-11-15T06:02:20;135.27;;;64.75;;
57025;SDS011;43961;52.940;6.834;2022-11-15T06:04:46;132.40;;;66.28;;
57025;SDS011;43961;52.940;6.834;2022-11-15T06:07:12;144.07;;;65.43;;
57025;SDS011;43961;52.940;6.834;2022-11-15T06:09:37;125.10;;;63.30;;
57025;SDS011;43961;52.940;6.834;2022-11-15T06:12:03;116.38;;;63.33;;
57025;SDS011;43961;52.940;6.834;2022-11-15T06:14:29;130.05;;;63.60;;
57025;SDS011;43961;52.940;6.834;2022-11-15T06:16:55;121.13;;;61.08;;
57025;SDS011;43961;52.940;6.834;2022-11-15T06:19:20;110.00;;;56.38;;
57025;SDS011;43961;52.940;6.834;2022-11-15T06:21:46;116.82;;;59.35;;
57025;SDS011;43961;52.940;6.834;2022-11-15T06:24:11;119.03;;;61.15;;
57025;SDS011;43961;52.940;6.834;2022-11-15T06:26:37;106.65;;;57.13;;
57025;SDS011;43961;52.940;6.834;2022-11-15T06:29:04;127.10;;;59.72;;
57025;SDS011;43961;52.940;6.834;2022-11-15T06:31:29;102.18;;;54.92;;
57025;SDS011;43961;52.940;6.834;2022-11-15T06:33:55;99.00;;;53.75;;
57025;SDS011;43961;52.940;6.834;2022-11-15T06:36:21;99.90;;;53.53;;
57025;SDS011;43961;52.940;6.834;2022-11-15T06:38:47;97.55;;;52.85;;
57025;SDS011;43961;52.940;6.834;2022-11-15T06:41:13;102.53;;;55.33;;
57025;SDS011;43961;52.940;6.834;2022-11-15T06:43:39;101.95;;;53.13;;
57025;SDS011;43961;52.940;6.834;2022-11-15T06:46:06;96.30;;;53.88;;
57025;SDS011;43961;52.940;6.834;2022-11-15T06:48:33;102.65;;;51.78;;
57025;SDS011;43961;52.940;6.834;2022-11-15T06:50:59;100.05;;;50.35;;
57025;SDS011;43961;52.940;6.834;2022-11-15T06:53:26;98.80;;;50.47;;
57025;SDS011;43961;52.940;6.834;2022-11-15T06:55:52;108.45;;;53.90;;
57025;SDS011;43961;52.940;6.834;2022-11-15T06:58:18;110.20;;;52.80;;
57025;SDS011;43961;52.940;6.834;2022-11-15T07:00:46;97.87;;;50.30;;
57025;SDS011;43961;52.940;6.834;2022-11-15T07:03:11;82.72;;;49.25;;
57025;SDS011;43961;52.940;6.834;2022-11-15T07:05:37;90.82;;;52.25;;
57025;SDS011;43961;52.940;6.834;2022-11-15T07:08:03;88.18;;;49.25;;
57025;SDS011;43961;52.940;6.834;2022-11-15T07:10:29;90.85;;;50.92;;
57025;SDS011;43961;52.940;6.834;2022-11-15T07:12:55;102.03;;;48.95;;
57025;SDS011;43961;52.940;6.834;2022-11-15T07:15:22;90.45;;;50.67;;
57025;SDS011;43961;52.940;6.834;2022-11-15T07:20:15;78.05;;;47.05;;
57025;SDS011;43961;52.940;6.834;2022-11-15T07:22:41;99.35;;;49.72;;
57025;SDS011;43961;52.940;6.834;2022-11-15T07:25:08;86.53;;;44.20;;
57025;SDS011;43961;52.940;6.834;2022-11-15T07:27:34;80.05;;;45.70;;
57025;SDS011;43961;52.940;6.834;2022-11-15T07:30:01;78.55;;;45.58;;
57025;SDS011;43961;52.940;6.834;2022-11-15T07:32:26;82.88;;;49.30;;
57025;SDS011;43961;52.940;6.834;2022-11-15T07:34:52;75.53;;;46.65;;
57025;SDS011;43961;52.940;6.834;2022-11-15T07:37:18;86.82;;;46.05;;
57025;SDS011;43961;52.940;6.834;2022-11-15T07:39:43;83.10;;;46.47;;
57025;SDS011;43961;52.940;6.834;2022-11-15T07:42:09;79.32;;;45.05;;
57025;SDS011;43961;52.940;6.834;2022-11-15T07:44:53;78.90;;;43.05;;
57025;SDS011;43961;52.940;6.834;2022-11-15T07:47:19;69.70;;;42.00;;
57025;SDS011;43961;52.940;6.834;2022-11-15T07:49:47;80.97;;;47.22;;
57025;SDS011;43961;52.940;6.834;2022-11-15T07:52:13;85.30;;;46.53;;
57025;SDS011;43961;52.940;6.834;2022-11-15T07:54:39;82.35;;;45.70;;
57025;SDS011;43961;52.940;6.834;2022-11-15T07:57:05;84.32;;;47.88;;
57025;SDS011;43961;52.940;6.834;2022-11-15T07:59:32;75.63;;;42.83;;
57025;SDS011;43961;52.940;6.834;2022-11-15T08:02:00;79.43;;;44.70;;
57025;SDS011;43961;52.940;6.834;2022-11-15T08:04:26;77.65;;;44.97;;
57025;SDS011;43961;52.940;6.834;2022-11-15T08:06:52;85.03;;;45.67;;
57025;SDS011;43961;52.940;6.834;2022-11-15T08:09:18;73.22;;;42.17;;
57025;SDS011;43961;52.940;6.834;2022-11-15T08:11:43;78.50;;;42.55;;
57025;SDS011;43961;52.940;6.834;2022-11-15T08:14:09;79.18;;;41.70;;
57025;SDS011;43961;52.940;6.834;2022-11-15T08:16:35;71.47;;;41.30;;
57025;SDS011;43961;52.940;6.834;2022-11-15T08:19:00;66.65;;;39.72;;
57025;SDS011;43961;52.940;6.834;2022-11-15T08:21:26;77.38;;;42.08;;
57025;SDS011;43961;52.940;6.834;2022-11-15T08:23:51;62.50;;;39.50;;
57025;SDS011;43961;52.940;6.834;2022-11-15T08:26:17;70.65;;;43.33;;
57025;SDS011;43961;52.940;6.834;2022-11-15T08:28:43;69.45;;;41.97;;
57025;SDS011;43961;52.940;6.834;2022-11-15T08:31:15;70.25;;;41.92;;
57025;SDS011;43961;52.940;6.834;2022-11-15T08:33:42;68.32;;;38.58;;
57025;SDS011;43961;52.940;6.834;2022-11-15T08:36:11;69.25;;;39.33;;
57025;SDS011;43961;52.940;6.834;2022-11-15T08:38:39;66.05;;;41.42;;
57025;SDS011;43961;52.940;6.834;2022-11-15T08:41:05;61.53;;;39.08;;
57025;SDS011;43961;52.940;6.834;2022-11-15T08:43:31;64.15;;;38.15;;
57025;SDS011;43961;52.940;6.834;2022-11-15T08:45:57;69.95;;;40.05;;
57025;SDS011;43961;52.940;6.834;2022-11-15T08:48:23;67.03;;;42.08;;
57025;SDS011;43961;52.940;6.834;2022-11-15T08:50:53;68.05;;;41.72;;
57025;SDS011;43961;52.940;6.834;2022-11-15T08:53:20;69.47;;;40.85;;
57025;SDS011;43961;52.940;6.834;2022-11-15T08:55:45;66.88;;;39.15;;
57025;SDS011;43961;52.940;6.834;2022-11-15T08:58:11;61.47;;;39.75;;
57025;SDS011;43961;52.940;6.834;2022-11-15T09:00:37;58.80;;;37.97;;
57025;SDS011;43961;52.940;6.834;2022-11-15T09:03:06;59.45;;;39.70;;
57025;SDS011;43961;52.940;6.834;2022-11-15T09:05:35;82.20;;;43.70;;
57025;SDS011;43961;52.940;6.834;2022-11-15T09:08:02;62.60;;;40.33;;
57025;SDS011;43961;52.940;6.834;2022-11-15T09:10:28;67.10;;;38.58;;
57025;SDS011;43961;52.940;6.834;2022-11-15T09:12:53;66.22;;;39.55;;
57025;SDS011;43961;52.940;6.834;2022-11-15T09:15:21;59.55;;;39.45;;
57025;SDS011;43961;52.940;6.834;2022-11-15T09:17:47;67.30;;;40.75;;
57025;SDS011;43961;52.940;6.834;2022-11-15T09:20:13;64.55;;;38.80;;
57025;SDS011;43961;52.940;6.834;2022-11-15T09:22:38;65.80;;;40.63;;
57025;SDS011;43961;52.940;6.834;2022-11-15T09:25:04;61.85;;;39.05;;
57025;SDS011;43961;52.940;6.834;2022-11-15T09:27:30;71.28;;;39.75;;
57025;SDS011;43961;52.940;6.834;2022-11-15T09:29:56;78.60;;;40.47;;
57025;SDS011;43961;52.940;6.834;2022-11-15T09:32:22;63.90;;;39.47;;
57025;SDS011;43961;52.940;6.834;2022-11-15T09:37:16;63.25;;;41.33;;
57025;SDS011;43961;52.940;6.834;2022-11-15T09:39:41;64.80;;;41.58;;
57025;SDS011;43961;52.940;6.834;2022-11-15T09:50:18;65.82;;;42.45;;
57025;SDS011;43961;52.940;6.834;2022-11-15T09:52:57;73.63;;;43.75;;
57025;SDS011;43961;52.940;6.834;2022-11-15T09:55:29;66.90;;;43.08;;
57025;SDS011;43961;52.940;6.834;2022-11-15T09:58:15;68.97;;;43.17;;
57025;SDS011;43961;52.940;6.834;2022-11-15T10:00:58;68.00;;;42.80;;
57025;SDS011;43961;52.940;6.834;2022-11-15T10:03:30;72.53;;;44.30;;
57025;SDS011;43961;52.940;6.834;2022-11-15T10:06:02;69.63;;;43.90;;
57025;SDS011;43961;52.940;6.834;2022-11-15T10:11:19;67.93;;;42.60;;
57025;SDS011;43961;52.940;6.834;2022-11-15T10:13:48;76.95;;;43.67;;
57025;SDS011;43961;52.940;6.834;2022-11-15T10:21:29;70.40;;;43.17;;
57025;SDS011;43961;52.940;6.834;2022-11-15T10:24:34;76.20;;;46.72;;
57025;SDS011;43961;52.940;6.834;2022-11-15T10:27:07;65.38;;;40.70;;
57025;SDS011;43961;52.940;6.834;2022-11-15T10:32:08;61.63;;;39.38;;
57025;SDS011;43961;52.940;6.834;2022-11-15T10:34:36;77.45;;;45.00;;
57025;SDS011;43961;52.940;6.834;2022-11-15T10:37:02;68.07;;;41.97;;
57025;SDS011;43961;52.940;6.834;2022-11-15T10:39:27;71.38;;;44.40;;
57025;SDS011;43961;52.940;6.834;2022-11-15T10:41:53;67.25;;;41.88;;
57025;SDS011;43961;52.940;6.834;2022-11-15T10:44:20;65.47;;;38.53;;
57025;SDS011;43961;52.940;6.834;2022-11-15T10:49:26;60.15;;;38.67;;
57025;SDS011;43961;52.940;6.834;2022-11-15T10:54:42;54.42;;;37.63;;
57025;SDS011;43961;52.940;6.834;2022-11-15T10:57:37;60.03;;;37.25;;
57025;SDS011;43961;52.940;6.834;2022-11-15T11:00:06;53.17;;;36.88;;
57025;SDS011;43961;52.940;6.834;2022-11-15T11:02:58;56.45;;;37.45;;
57025;SDS011;43961;52.940;6.834;2022-11-15T11:05:28;52.25;;;37.47;;
57025;SDS011;43961;52.940;6.834;2022-11-15T11:07:58;50.40;;;35.92;;
57025;SDS011;43961;52.940;6.834;2022-11-15T11:10:26;48.28;;;33.35;;
57025;SDS011;43961;52.940;6.834;2022-11-15T11:12:52;43.33;;;30.70;;
57025;SDS011;43961;52.940;6.834;2022-11-15T11:15:18;56.72;;;33.40;;
57025;SDS011;43961;52.940;6.834;2022-11-15T11:17:57;50.97;;;33.88;;
57025;SDS011;43961;52.940;6.834;2022-11-15T11:20:37;52.72;;;30.17;;
57025;SDS011;43961;52.940;6.834;2022-11-15T11:29:10;49.38;;;30.27;;
57025;SDS011;43961;52.940;6.834;2022-11-15T11:35:06;31.25;;;21.52;;
57025;SDS011;43961;52.940;6.834;2022-11-15T11:41:26;30.20;;;19.15;;
57025;SDS011;43961;52.940;6.834;2022-11-15T11:49:32;28.48;;;14.35;;
57025;SDS011;43961;52.940;6.834;2022-11-15T11:55:01;13.07;;;9.73;;
57025;SDS011;43961;52.940;6.834;2022-11-15T11:57:41;21.05;;;11.57;;
57025;SDS011;43961;52.940;6.834;2022-11-15T12:00:22;18.75;;;11.82;;
57025;SDS011;43961;52.940;6.834;2022-11-15T12:03:37;15.43;;;11.27;;
57025;SDS011;43961;52.940;6.834;2022-11-15T12:06:06;16.63;;;10.85;;
57025;SDS011;43961;52.940;6.834;2022-11-15T12:08:54;23.52;;;12.35;;
57025;SDS011;43961;52.940;6.834;2022-11-15T12:14:10;25.38;;;13.35;;
57025;SDS011;43961;52.940;6.834;2022-11-15T12:16:44;16.98;;;11.88;;
57025;SDS011;43961;52.940;6.834;2022-11-15T12:19:10;20.40;;;14.40;;
57025;SDS011;43961;52.940;6.834;2022-11-15T12:24:04;21.20;;;11.50;;
57025;SDS011;43961;52.940;6.834;2022-11-15T12:26:40;20.15;;;12.35;;
57025;SDS011;43961;52.940;6.834;2022-11-15T12:29:33;16.95;;;11.38;;
57025;SDS011;43961;52.940;6.834;2022-11-15T12:32:01;15.38;;;11.43;;
57025;SDS011;43961;52.940;6.834;2022-11-15T12:37:05;25.27;;;12.05;;
57025;SDS011;43961;52.940;6.834;2022-11-15T12:42:41;14.73;;;9.45;;
57025;SDS011;43961;52.940;6.834;2022-11-15T12:45:26;16.42;;;10.98;;
57025;SDS011;43961;52.940;6.834;2022-11-15T13:06:45;11.30;;;7.60;;
57025;SDS011;43961;52.940;6.834;2022-11-15T13:14:58;12.65;;;6.65;;
57025;SDS011;43961;52.940;6.834;2022-11-15T13:22:44;17.50;;;7.75;;
57025;SDS011;43961;52.940;6.834;2022-11-15T13:30:54;14.50;;;7.35;;
57025;SDS011;43961;52.940;6.834;2022-11-15T13:38:32;10.13;;;7.65;;
57025;SDS011;43961;52.940;6.834;2022-11-15T13:43:35;11.38;;;7.97;;
57025;SDS011;43961;52.940;6.834;2022-11-15T13:46:16;17.27;;;8.27;;
57025;SDS011;43961;52.940;6.834;2022-11-15T13:48:42;9.95;;;8.27;;
57025;SDS011;43961;52.940;6.834;2022-11-15T13:51:20;15.10;;;9.00;;
57025;SDS011;43961;52.940;6.834;2022-11-15T13:53:58;14.25;;;7.03;;
57025;SDS011;43961;52.940;6.834;2022-11-15T13:56:48;8.80;;;7.05;;
57025;SDS011;43961;52.940;6.834;2022-11-15T13:59:24;8.43;;;6.65;;
57025;SDS011;43961;52.940;6.834;2022-11-15T14:01:51;8.70;;;7.53;;
57025;SDS011;43961;52.940;6.834;2022-11-15T14:04:19;8.23;;;7.35;;
57025;SDS011;43961;52.940;6.834;2022-11-15T14:06:51;11.05;;;7.60;;
57025;SDS011;43961;52.940;6.834;2022-11-15T14:09:36;11.98;;;6.97;;
57025;SDS011;43961;52.940;6.834;2022-11-15T14:12:21;12.30;;;7.10;;
57025;SDS011;43961;52.940;6.834;2022-11-15T14:14:52;15.43;;;8.00;;
57025;SDS011;43961;52.940;6.834;2022-11-15T14:17:20;10.38;;;8.63;;
57025;SDS011;43961;52.940;6.834;2022-11-15T14:19:55;10.63;;;8.15;;
57025;SDS011;43961;52.940;6.834;2022-11-15T14:22:25;11.75;;;9.38;;
57025;SDS011;43961;52.940;6.834;2022-11-15T14:27:40;12.52;;;8.55;;
57025;SDS011;43961;52.940;6.834;2022-11-15T14:30:12;10.50;;;8.80;;
57025;SDS011;43961;52.940;6.834;2022-11-15T14:32:44;11.43;;;9.57;;
57025;SDS011;43961;52.940;6.834;2022-11-15T14:35:13;12.77;;;9.32;;
57025;SDS011;43961;52.940;6.834;2022-11-15T14:37:40;14.55;;;9.65;;
57025;SDS011;43961;52.940;6.834;2022-11-15T14:40:06;15.85;;;9.57;;
57025;SDS011;43961;52.940;6.834;2022-11-15T14:45:00;19.27;;;10.35;;
57025;SDS011;43961;52.940;6.834;2022-11-15T14:47:25;11.32;;;9.90;;
57025;SDS011;43961;52.940;6.834;2022-11-15T14:49:51;13.75;;;10.35;;
57025;SDS011;43961;52.940;6.834;2022-11-15T14:52:27;10.85;;;8.95;;
57025;SDS011;43961;52.940;6.834;2022-11-15T14:54:55;13.40;;;10.65;;
57025;SDS011;43961;52.940;6.834;2022-11-15T14:57:23;13.23;;;11.07;;
57025;SDS011;43961;52.940;6.834;2022-11-15T14:59:49;11.80;;;10.07;;
57025;SDS011;43961;52.940;6.834;2022-11-15T15:02:22;17.75;;;11.23;;
57025;SDS011;43961;52.940;6.834;2022-11-15T15:04:49;11.05;;;9.98;;
57025;SDS011;43961;52.940;6.834;2022-11-15T15:07:15;20.98;;;11.98;;
57025;SDS011;43961;52.940;6.834;2022-11-15T15:09:42;11.93;;;10.65;;
57025;SDS011;43961;52.940;6.834;2022-11-15T15:12:18;12.90;;;11.35;;
57025;SDS011;43961;52.940;6.834;2022-11-15T15:14:46;12.75;;;11.40;;
57025;SDS011;43961;52.940;6.834;2022-11-15T15:17:13;17.38;;;11.30;;
57025;SDS011;43961;52.940;6.834;2022-11-15T15:19:39;26.40;;;10.93;;
57025;SDS011;43961;52.940;6.834;2022-11-15T15:22:05;13.55;;;9.40;;
57025;SDS011;43961;52.940;6.834;2022-11-15T15:24:31;14.15;;;11.27;;
57025;SDS011;43961;52.940;6.834;2022-11-15T15:26:57;20.10;;;10.52;;
57025;SDS011;43961;52.940;6.834;2022-11-15T15:29:22;18.95;;;11.05;;
57025;SDS011;43961;52.940;6.834;2022-11-15T15:31:48;11.48;;;10.38;;
57025;SDS011;43961;52.940;6.834;2022-11-15T15:34:13;17.88;;;11.18;;
57025;SDS011;43961;52.940;6.834;2022-11-15T15:36:39;20.40;;;11.38;;
57025;SDS011;43961;52.940;6.834;2022-11-15T15:39:07;15.60;;;12.43;;
57025;SDS011;43961;52.940;6.834;2022-11-15T15:41:35;15.85;;;13.00;;
57025;SDS011;43961;52.940;6.834;2022-11-15T15:44:00;21.08;;;11.95;;
57025;SDS011;43961;52.940;6.834;2022-11-15T15:46:26;24.92;;;12.70;;
57025;SDS011;43961;52.940;6.834;2022-11-15T15:48:52;20.15;;;14.13;;
57025;SDS011;43961;52.940;6.834;2022-11-15T15:51:18;18.70;;;13.23;;
57025;SDS011;43961;52.940;6.834;2022-11-15T15:53:43;15.65;;;11.88;;
57025;SDS011;43961;52.940;6.834;2022-11-15T15:56:09;16.20;;;13.90;;
57025;SDS011;43961;52.940;6.834;2022-11-15T15:58:35;15.80;;;11.65;;
57025;SDS011;43961;52.940;6.834;2022-11-15T16:01:00;15.93;;;11.00;;
57025;SDS011;43961;52.940;6.834;2022-11-15T16:03:26;13.95;;;11.25;;
57025;SDS011;43961;52.940;6.834;2022-11-15T16:05:52;14.75;;;10.05;;
57025;SDS011;43961;52.940;6.834;2022-11-15T16:08:19;20.85;;;11.32;;
57025;SDS011;43961;52.940;6.834;2022-11-15T16:10:46;13.77;;;10.30;;
57025;SDS011;43961;52.940;6.834;2022-11-15T16:13:12;11.98;;;10.00;;
57025;SDS011;43961;52.940;6.834;2022-11-15T16:15:38;10.60;;;9.60;;
57025;SDS011;43961;52.940;6.834;2022-11-15T16:18:05;13.07;;;8.98;;
57025;SDS011;43961;52.940;6.834;2022-11-15T16:23:02;12.65;;;10.82;;
57025;SDS011;43961;52.940;6.834;2022-11-15T16:25:30;17.90;;;10.93;;
57025;SDS011;43961;52.940;6.834;2022-11-15T16:27:59;12.00;;;10.63;;
57025;SDS011;43961;52.940;6.834;2022-11-15T16:30:24;15.13;;;11.48;;
57025;SDS011;43961;52.940;6.834;2022-11-15T16:32:50;11.68;;;10.32;;
57025;SDS011;43961;52.940;6.834;2022-11-15T16:35:16;12.85;;;10.35;;
57025;SDS011;43961;52.940;6.834;2022-11-15T16:37:42;13.95;;;9.38;;
57025;SDS011;43961;52.940;6.834;2022-11-15T16:42:42;14.80;;;9.30;;
57025;SDS011;43961;52.940;6.834;2022-11-15T16:45:10;10.35;;;7.72;;
57025;SDS011;43961;52.940;6.834;2022-11-15T16:47:36;10.35;;;8.05;;
57025;SDS011;43961;52.940;6.834;2022-11-15T16:50:02;20.38;;;8.55;;
57025;SDS011;43961;52.940;6.834;2022-11-15T16:52:28;9.20;;;7.28;;
57025;SDS011;43961;52.940;6.834;2022-11-15T16:54:53;10.23;;;6.90;;
57025;SDS011;43961;52.940;6.834;2022-11-15T16:57:19;7.75;;;6.95;;
57025;SDS011;43961;52.940;6.834;2022-11-15T16:59:45;7.80;;;5.35;;
57025;SDS011;43961;52.940;6.834;2022-11-15T17:02:11;16.20;;;7.18;;
57025;SDS011;43961;52.940;6.834;2022-11-15T17:04:37;12.25;;;7.10;;